sensor_id;sensor_type;location;lat;lon;timestamp;pressure;altitude;pressure_sealevel;temperature;humidity
11347;BME280;5728;42.722;23.258;2024-03-22T00:02:08;94835.72;;;7.59;58.34
11347;BME280;5728;42.722;23.258;2024-03-22T00:04:35;94820.31;;;7.34;58.26
11347;BME280;5728;42.722;23.258;2024-03-22T00:07:02;94816.03;;;7.30;57.22
11347;BME280;5728;42.722;23.258;2024-03-22T00:09:30;94826.31;;;7.49;54.45
11347;BME280;5728;42.722;23.258;2024-03-22T00:11:56;94828.03;;;7.47;56.08
11347;BME280;5728;42.722;23.258;2024-03-22T00:14:24;94831.47;;;7.52;55.06
11347;BME280;5728;42.722;23.258;2024-03-22T00:16:51;94822.00;;;7.41;53.57
11347;BME280;5728;42.722;23.258;2024-03-22T00:19:21;94832.31;;;7.50;54.43
11347;BME280;5728;42.722;23.258;2024-03-22T00:21:47;94825.47;;;7.40;54.06
11347;BME280;5728;42.722;23.258;2024-03-22T00:24:14;94822.00;;;7.38;54.62
11347;BME280;5728;42.722;23.258;2024-03-22T00:26:39;94818.59;;;7.42;54.86
11347;BME280;5728;42.722;23.258;2024-03-22T00:29:06;94822.88;;;7.38;55.35
11347;BME280;5728;42.722;23.258;2024-03-22T00:31:32;94818.59;;;7.36;55.23
11347;BME280;5728;42.722;23.258;2024-03-22T00:33:59;94813.38;;;7.57;54.12
11347;BME280;5728;42.722;23.258;2024-03-22T00:36:27;94823.75;;;7.42;55.16
11347;BME280;5728;42.722;23.258;2024-03-22T00:38:54;94823.75;;;7.45;54.80
11347;BME280;5728;42.722;23.258;2024-03-22T00:41:19;94828.06;;;7.23;55.33
11347;BME280;5728;42.722;23.258;2024-03-22T00:43:47;94828.94;;;7.27;55.80
11347;BME280;5728;42.722;23.258;2024-03-22T00:46:12;94829.78;;;7.15;56.39
11347;BME280;5728;42.722;23.258;2024-03-22T00:48:40;94819.50;;;7.09;56.35
11347;BME280;5728;42.722;23.258;2024-03-22T00:51:06;94823.78;;;7.27;57.56
11347;BME280;5728;42.722;23.258;2024-03-22T00:53:34;94828.13;;;6.85;58.66
11347;BME280;5728;42.722;23.258;2024-03-22T00:56:00;94825.53;;;6.43;58.55
11347;BME280;5728;42.722;23.258;2024-03-22T00:58:27;94832.31;;;6.05;59.10
11347;BME280;5728;42.722;23.258;2024-03-22T01:00:53;94825.44;;;5.95;60.71
11347;BME280;5728;42.722;23.258;2024-03-22T01:03:21;94832.94;;;5.49;62.82
11347;BME280;5728;42.722;23.258;2024-03-22T01:05:47;94838.13;;;5.60;63.21
11347;BME280;5728;42.722;23.258;2024-03-22T01:08:14;94851.91;;;5.68;63.13
11347;BME280;5728;42.722;23.258;2024-03-22T01:10:41;94819.94;;;5.16;63.96
11347;BME280;5728;42.722;23.258;2024-03-22T01:13:08;94805.31;;;5.06;64.87
11347;BME280;5728;42.722;23.258;2024-03-22T01:15:35;94804.31;;;4.89;65.74
11347;BME280;5728;42.722;23.258;2024-03-22T01:18:02;94824.03;;;4.88;65.85
11347;BME280;5728;42.722;23.258;2024-03-22T01:20:28;94830.19;;;5.13;67.05
11347;BME280;5728;42.722;23.258;2024-03-22T01:22:55;94819.75;;;4.89;66.78
11347;BME280;5728;42.722;23.258;2024-03-22T01:25:21;94834.88;;;4.48;67.84
11347;BME280;5728;42.722;23.258;2024-03-22T01:27:49;94818.56;;;4.44;68.63
11347;BME280;5728;42.722;23.258;2024-03-22T01:30:16;94824.50;;;4.37;68.29
11347;BME280;5728;42.722;23.258;2024-03-22T01:32:42;94825.97;;;4.14;68.91
11347;BME280;5728;42.722;23.258;2024-03-22T01:35:08;94824.28;;;4.16;69.58
11347;BME280;5728;42.722;23.258;2024-03-22T01:37:35;94839.84;;;4.34;69.53
11347;BME280;5728;42.722;23.258;2024-03-22T01:40:02;94826.13;;;4.28;69.52
11347;BME280;5728;42.722;23.258;2024-03-22T01:42:32;94839.47;;;3.95;69.17
11347;BME280;5728;42.722;23.258;2024-03-22T01:45:00;94825.00;;;4.00;67.83
11347;BME280;5728;42.722;23.258;2024-03-22T01:47:27;94817.19;;;3.91;68.69
11347;BME280;5728;42.722;23.258;2024-03-22T01:49:54;94824.09;;;3.95;68.21
11347;BME280;5728;42.722;23.258;2024-03-22T01:52:22;94842.00;;;3.92;69.15
11347;BME280;5728;42.722;23.258;2024-03-22T01:54:48;94814.81;;;4.08;67.61
11347;BME280;5728;42.722;23.258;2024-03-22T01:57:15;94819.25;;;4.28;68.24
11347;BME280;5728;42.722;23.258;2024-03-22T01:59:42;94823.56;;;4.28;66.65
11347;BME280;5728;42.722;23.258;2024-03-22T02:02:11;94822.69;;;4.27;67.29
11347;BME280;5728;42.722;23.258;2024-03-22T02:04:37;94816.59;;;4.16;67.84
11347;BME280;5728;42.722;23.258;2024-03-22T02:07:05;94816.56;;;4.12;68.10
11347;BME280;5728;42.722;23.258;2024-03-22T02:09:31;94824.25;;;4.10;67.50
11347;BME280;5728;42.722;23.258;2024-03-22T02:11:58;94814.84;;;4.14;67.13
11347;BME280;5728;42.722;23.258;2024-03-22T02:14:24;94816.00;;;4.44;67.29
11347;BME280;5728;42.722;23.258;2024-03-22T02:16:51;94814.31;;;4.48;67.78
11347;BME280;5728;42.722;23.258;2024-03-22T02:19:18;94820.56;;;4.80;69.25
11347;BME280;5728;42.722;23.258;2024-03-22T02:21:45;94819.50;;;4.54;65.52
11347;BME280;5728;42.722;23.258;2024-03-22T02:24:13;94818.81;;;4.73;67.76
11347;BME280;5728;42.722;23.258;2024-03-22T02:26:40;94819.69;;;4.80;66.50
11347;BME280;5728;42.722;23.258;2024-03-22T02:29:06;94829.09;;;4.78;68.04
11347;BME280;5728;42.722;23.258;2024-03-22T02:31:33;94825.72;;;4.83;66.88
11347;BME280;5728;42.722;23.258;2024-03-22T02:33:59;94825.50;;;4.55;67.67
11347;BME280;5728;42.722;23.258;2024-03-22T02:36:26;94840.28;;;4.83;66.58
11347;BME280;5728;42.722;23.258;2024-03-22T02:38:52;94839.63;;;5.17;66.18
11347;BME280;5728;42.722;23.258;2024-03-22T02:41:21;94860.16;;;5.12;65.60
11347;BME280;5728;42.722;23.258;2024-03-22T02:43:47;94842.28;;;5.32;65.10
11347;BME280;5728;42.722;23.258;2024-03-22T02:46:14;94837.19;;;5.44;65.01
11347;BME280;5728;42.722;23.258;2024-03-22T02:48:40;94842.38;;;5.47;66.21
11347;BME280;5728;42.722;23.258;2024-03-22T02:51:07;94853.41;;;5.28;65.55
11347;BME280;5728;42.722;23.258;2024-03-22T02:53:33;94838.09;;;5.51;65.86
11347;BME280;5728;42.722;23.258;2024-03-22T02:56:00;94847.56;;;5.59;65.21
11347;BME280;5728;42.722;23.258;2024-03-22T02:58:28;94856.88;;;5.36;65.55
11347;BME280;5728;42.722;23.258;2024-03-22T03:00:54;94854.38;;;5.45;65.37
11347;BME280;5728;42.722;23.258;2024-03-22T03:03:39;94853.44;;;5.39;65.71
11347;BME280;5728;42.722;23.258;2024-03-22T03:06:06;94850.09;;;5.46;66.62
11347;BME280;5728;42.722;23.258;2024-03-22T03:08:32;94869.56;;;5.09;66.08
11347;BME280;5728;42.722;23.258;2024-03-22T03:10:59;94861.88;;;5.12;67.03
11347;BME280;5728;42.722;23.258;2024-03-22T03:13:25;94862.56;;;4.91;66.41
11347;BME280;5728;42.722;23.258;2024-03-22T03:15:56;94861.69;;;4.83;68.43
11347;BME280;5728;42.722;23.258;2024-03-22T03:18:21;94867.41;;;4.53;69.30
11347;BME280;5728;42.722;23.258;2024-03-22T03:20:49;94862.28;;;4.53;70.87
11347;BME280;5728;42.722;23.258;2024-03-22T03:23:14;94861.38;;;4.47;71.77
11347;BME280;5728;42.722;23.258;2024-03-22T03:25:41;94868.31;;;4.57;70.71
11347;BME280;5728;42.722;23.258;2024-03-22T03:28:07;94865.63;;;4.46;70.51
11347;BME280;5728;42.722;23.258;2024-03-22T03:30:34;94881.03;;;4.46;70.85
11347;BME280;5728;42.722;23.258;2024-03-22T03:33:02;94878.59;;;4.62;71.38
11347;BME280;5728;42.722;23.258;2024-03-22T03:35:29;94874.47;;;4.76;74.14
11347;BME280;5728;42.722;23.258;2024-03-22T03:37:55;94881.34;;;4.80;71.32
11347;BME280;5728;42.722;23.258;2024-03-22T03:40:22;94878.00;;;4.90;69.81
11347;BME280;5728;42.722;23.258;2024-03-22T03:42:50;94884.09;;;5.02;70.06
11347;BME280;5728;42.722;23.258;2024-03-22T03:45:17;94885.63;;;4.84;70.45
11347;BME280;5728;42.722;23.258;2024-03-22T03:47:43;94871.91;;;4.77;69.89
11347;BME280;5728;42.722;23.258;2024-03-22T03:50:11;94877.03;;;4.79;69.63
11347;BME280;5728;42.722;23.258;2024-03-22T03:52:38;94888.94;;;4.68;69.97
11347;BME280;5728;42.722;23.258;2024-03-22T03:55:05;94894.94;;;4.70;69.67
11347;BME280;5728;42.722;23.258;2024-03-22T03:57:31;94891.53;;;4.74;69.95
11347;BME280;5728;42.722;23.258;2024-03-22T03:59:58;94895.28;;;5.10;72.82
11347;BME280;5728;42.722;23.258;2024-03-22T04:02:24;94899.56;;;4.18;72.01
11347;BME280;5728;42.722;23.258;2024-03-22T04:04:52;94906.19;;;3.98;72.24
11347;BME280;5728;42.722;23.258;2024-03-22T04:07:19;94890.34;;;3.60;72.65
11347;BME280;5728;42.722;23.258;2024-03-22T04:09:47;94909.09;;;3.55;74.05
11347;BME280;5728;42.722;23.258;2024-03-22T04:12:12;94912.28;;;3.39;74.27
11347;BME280;5728;42.722;23.258;2024-03-22T04:14:40;94901.41;;;3.58;75.05
11347;BME280;5728;42.722;23.258;2024-03-22T04:17:05;94905.66;;;3.54;74.56
11347;BME280;5728;42.722;23.258;2024-03-22T04:19:32;94910.88;;;3.62;73.96
11347;BME280;5728;42.722;23.258;2024-03-22T04:21:58;94922.75;;;3.55;75.53
11347;BME280;5728;42.722;23.258;2024-03-22T04:24:27;94914.81;;;3.37;75.52
11347;BME280;5728;42.722;23.258;2024-03-22T04:26:53;94915.66;;;3.38;76.89
11347;BME280;5728;42.722;23.258;2024-03-22T04:29:20;94915.44;;;3.22;76.65
11347;BME280;5728;42.722;23.258;2024-03-22T04:31:46;94905.78;;;3.02;76.04
11347;BME280;5728;42.722;23.258;2024-03-22T04:34:12;94921.91;;;3.58;75.49
11347;BME280;5728;42.722;23.258;2024-03-22T04:36:39;94929.03;;;3.78;72.92
11347;BME280;5728;42.722;23.258;2024-03-22T04:39:06;94945.00;;;3.58;74.00
11347;BME280;5728;42.722;23.258;2024-03-22T04:41:36;94938.44;;;3.78;74.20
11347;BME280;5728;42.722;23.258;2024-03-22T04:44:04;94946.56;;;4.13;73.54
11347;BME280;5728;42.722;23.258;2024-03-22T04:46:31;94933.91;;;4.29;72.47
11347;BME280;5728;42.722;23.258;2024-03-22T04:48:56;94957.34;;;4.58;71.88
11347;BME280;5728;42.722;23.258;2024-03-22T04:51:23;94939.38;;;4.61;72.27
11347;BME280;5728;42.722;23.258;2024-03-22T04:53:49;94945.56;;;4.81;72.26
11347;BME280;5728;42.722;23.258;2024-03-22T04:56:16;94938.78;;;4.89;71.06
11347;BME280;5728;42.722;23.258;2024-03-22T04:58:44;94941.50;;;5.06;70.25
11347;BME280;5728;42.722;23.258;2024-03-22T05:01:10;94933.94;;;5.26;69.47
11347;BME280;5728;42.722;23.258;2024-03-22T05:03:38;94940.03;;;5.41;69.58
11347;BME280;5728;42.722;23.258;2024-03-22T05:06:06;94944.38;;;5.51;69.27
11347;BME280;5728;42.722;23.258;2024-03-22T05:08:32;94941.75;;;5.44;69.45
11347;BME280;5728;42.722;23.258;2024-03-22T05:10:59;94947.13;;;5.81;67.05
11347;BME280;5728;42.722;23.258;2024-03-22T05:13:26;94948.97;;;5.95;65.96
11347;BME280;5728;42.722;23.258;2024-03-22T05:15:54;94943.78;;;5.89;66.94
11347;BME280;5728;42.722;23.258;2024-03-22T05:18:20;94948.84;;;5.79;67.66
11347;BME280;5728;42.722;23.258;2024-03-22T05:20:47;94955.91;;;6.11;67.49
11347;BME280;5728;42.722;23.258;2024-03-22T05:23:13;94958.41;;;5.96;67.30
11347;BME280;5728;42.722;23.258;2024-03-22T05:25:41;94967.16;;;6.37;65.55
11347;BME280;5728;42.722;23.258;2024-03-22T05:28:07;94962.78;;;6.15;66.21
11347;BME280;5728;42.722;23.258;2024-03-22T05:30:34;94986.91;;;6.38;65.56
11347;BME280;5728;42.722;23.258;2024-03-22T05:33:01;94984.34;;;6.42;65.70
11347;BME280;5728;42.722;23.258;2024-03-22T05:35:28;94982.63;;;6.44;65.88
11347;BME280;5728;42.722;23.258;2024-03-22T05:37:54;94970.69;;;6.66;65.70
11347;BME280;5728;42.722;23.258;2024-03-22T05:40:22;94976.72;;;6.77;64.71
11347;BME280;5728;42.722;23.258;2024-03-22T05:42:48;94981.94;;;7.11;61.51
11347;BME280;5728;42.722;23.258;2024-03-22T05:45:15;94990.53;;;7.19;64.42
11347;BME280;5728;42.722;23.258;2024-03-22T05:47:41;94973.34;;;7.42;60.06
11347;BME280;5728;42.722;23.258;2024-03-22T05:50:10;94983.66;;;7.08;61.77
11347;BME280;5728;42.722;23.258;2024-03-22T05:52:36;94987.09;;;7.11;61.46
11347;BME280;5728;42.722;23.258;2024-03-22T05:55:04;94976.78;;;7.53;59.86
11347;BME280;5728;42.722;23.258;2024-03-22T05:57:30;94986.22;;;7.80;57.64
11347;BME280;5728;42.722;23.258;2024-03-22T05:59:57;95019.78;;;7.90;56.93
11347;BME280;5728;42.722;23.258;2024-03-22T06:02:23;94988.72;;;8.20;56.31
11347;BME280;5728;42.722;23.258;2024-03-22T06:04:50;95017.13;;;8.22;55.52
11347;BME280;5728;42.722;23.258;2024-03-22T06:07:17;94987.78;;;8.50;55.33
11347;BME280;5728;42.722;23.258;2024-03-22T06:09:44;94985.97;;;8.70;53.22
11347;BME280;5728;42.722;23.258;2024-03-22T06:12:14;95002.19;;;9.01;53.53
11347;BME280;5728;42.722;23.258;2024-03-22T06:14:42;95000.31;;;9.21;52.27
11347;BME280;5728;42.722;23.258;2024-03-22T06:17:08;94976.13;;;9.25;52.60
11347;BME280;5728;42.722;23.258;2024-03-22T06:19:36;94985.34;;;9.59;50.56
11347;BME280;5728;42.722;23.258;2024-03-22T06:22:02;94981.56;;;9.98;49.56
11347;BME280;5728;42.722;23.258;2024-03-22T06:24:31;94977.59;;;9.59;49.88
11347;BME280;5728;42.722;23.258;2024-03-22T06:26:57;94986.16;;;9.64;50.76
11347;BME280;5728;42.722;23.258;2024-03-22T06:29:24;95003.03;;;10.08;49.45
11347;BME280;5728;42.722;23.258;2024-03-22T06:31:50;94978.59;;;10.35;51.13
11347;BME280;5728;42.722;23.258;2024-03-22T06:34:18;95005.38;;;10.35;48.77
11347;BME280;5728;42.722;23.258;2024-03-22T06:36:44;94985.41;;;10.43;49.40
11347;BME280;5728;42.722;23.258;2024-03-22T06:39:11;94989.22;;;10.09;48.79
11347;BME280;5728;42.722;23.258;2024-03-22T06:41:38;94984.41;;;10.56;47.75
11347;BME280;5728;42.722;23.258;2024-03-22T06:44:05;94993.78;;;10.66;48.23
11347;BME280;5728;42.722;23.258;2024-03-22T06:46:31;94998.69;;;10.87;46.87
11347;BME280;5728;42.722;23.258;2024-03-22T06:48:58;94997.16;;;10.74;46.86
11347;BME280;5728;42.722;23.258;2024-03-22T06:51:24;95000.66;;;10.69;48.50
11347;BME280;5728;42.722;23.258;2024-03-22T06:53:51;95007.16;;;11.02;46.96
11347;BME280;5728;42.722;23.258;2024-03-22T06:56:17;95007.50;;;10.76;48.07
11347;BME280;5728;42.722;23.258;2024-03-22T06:58:46;95005.03;;;11.28;45.83
11347;BME280;5728;42.722;23.258;2024-03-22T07:01:12;95007.97;;;11.07;46.53
11347;BME280;5728;42.722;23.258;2024-03-22T07:03:39;95015.53;;;11.22;47.08
11347;BME280;5728;42.722;23.258;2024-03-22T07:06:06;95010.09;;;11.40;45.37
11347;BME280;5728;42.722;23.258;2024-03-22T07:08:35;95007.28;;;11.50;44.77
11347;BME280;5728;42.722;23.258;2024-03-22T07:11:05;95017.97;;;11.90;44.18
11347;BME280;5728;42.722;23.258;2024-03-22T07:13:32;95012.28;;;12.18;46.09
11347;BME280;5728;42.722;23.258;2024-03-22T07:16:00;95003.13;;;11.97;44.58
11347;BME280;5728;42.722;23.258;2024-03-22T07:18:27;95012.03;;;11.23;45.43
11347;BME280;5728;42.722;23.258;2024-03-22T07:20:53;95014.88;;;11.06;48.43
11347;BME280;5728;42.722;23.258;2024-03-22T07:23:21;95025.97;;;11.16;47.51
11347;BME280;5728;42.722;23.258;2024-03-22T07:25:47;95028.63;;;11.75;46.57
11347;BME280;5728;42.722;23.258;2024-03-22T07:28:14;95013.16;;;12.18;45.70
11347;BME280;5728;42.722;23.258;2024-03-22T07:30:39;95029.13;;;12.46;44.59
11347;BME280;5728;42.722;23.258;2024-03-22T07:33:09;94995.06;;;12.58;45.00
11347;BME280;5728;42.722;23.258;2024-03-22T07:35:36;95019.25;;;13.04;45.86
11347;BME280;5728;42.722;23.258;2024-03-22T07:38:03;95016.34;;;13.21;44.11
11347;BME280;5728;42.722;23.258;2024-03-22T07:40:29;95027.69;;;13.18;42.93
11347;BME280;5728;42.722;23.258;2024-03-22T07:42:57;95012.53;;;13.74;42.04
11347;BME280;5728;42.722;23.258;2024-03-22T07:45:24;95008.44;;;13.99;41.84
11347;BME280;5728;42.722;23.258;2024-03-22T07:47:51;95010.41;;;14.25;42.60
11347;BME280;5728;42.722;23.258;2024-03-22T07:50:19;95010.59;;;14.17;42.97
11347;BME280;5728;42.722;23.258;2024-03-22T07:52:46;95006.00;;;14.27;42.33
11347;BME280;5728;42.722;23.258;2024-03-22T07:55:12;95022.53;;;13.92;41.73
11347;BME280;5728;42.722;23.258;2024-03-22T07:57:39;95006.28;;;13.44;41.44
11347;BME280;5728;42.722;23.258;2024-03-22T08:00:06;95004.63;;;13.40;42.15
11347;BME280;5728;42.722;23.258;2024-03-22T08:02:35;95004.22;;;13.93;40.65
11347;BME280;5728;42.722;23.258;2024-03-22T08:05:01;95011.16;;;13.58;40.94
11347;BME280;5728;42.722;23.258;2024-03-22T08:07:30;95027.72;;;13.92;41.40
11347;BME280;5728;42.722;23.258;2024-03-22T08:09:56;95053.06;;;14.22;39.67
11347;BME280;5728;42.722;23.258;2024-03-22T08:12:24;95028.50;;;14.32;40.19
11347;BME280;5728;42.722;23.258;2024-03-22T08:14:50;95014.75;;;14.24;39.08
11347;BME280;5728;42.722;23.258;2024-03-22T08:17:17;95017.28;;;14.27;39.62
11347;BME280;5728;42.722;23.258;2024-03-22T08:19:45;95004.75;;;14.41;38.86
11347;BME280;5728;42.722;23.258;2024-03-22T08:22:12;95007.22;;;14.47;39.10
11347;BME280;5728;42.722;23.258;2024-03-22T08:24:39;95012.44;;;14.47;41.36
11347;BME280;5728;42.722;23.258;2024-03-22T08:27:07;95014.13;;;14.48;38.78
11347;BME280;5728;42.722;23.258;2024-03-22T08:29:34;95002.19;;;14.40;40.25
11347;BME280;5728;42.722;23.258;2024-03-22T08:32:03;94991.75;;;14.72;38.78
11347;BME280;5728;42.722;23.258;2024-03-22T08:34:30;95023.16;;;15.00;37.78
11347;BME280;5728;42.722;23.258;2024-03-22T08:36:57;94994.53;;;14.34;39.50
11347;BME280;5728;42.722;23.258;2024-03-22T08:39:24;95028.88;;;14.16;38.74
11347;BME280;5728;42.722;23.258;2024-03-22T08:41:53;95002.53;;;13.17;40.03
11347;BME280;5728;42.722;23.258;2024-03-22T08:44:22;94991.19;;;13.58;41.22
11347;BME280;5728;42.722;23.258;2024-03-22T08:46:52;94998.56;;;14.45;38.20
11347;BME280;5728;42.722;23.258;2024-03-22T08:49:19;95000.88;;;14.56;38.64
11347;BME280;5728;42.722;23.258;2024-03-22T08:51:46;95008.50;;;13.96;38.24
11347;BME280;5728;42.722;23.258;2024-03-22T08:54:13;94997.94;;;13.28;39.71
11347;BME280;5728;42.722;23.258;2024-03-22T08:56:42;94989.97;;;13.36;41.07
11347;BME280;5728;42.722;23.258;2024-03-22T08:59:12;95020.34;;;14.44;39.82
11347;BME280;5728;42.722;23.258;2024-03-22T09:01:39;94984.91;;;14.00;38.63
11347;BME280;5728;42.722;23.258;2024-03-22T09:04:06;94989.66;;;13.85;39.36
11347;BME280;5728;42.722;23.258;2024-03-22T09:06:35;94994.34;;;14.06;39.52
11347;BME280;5728;42.722;23.258;2024-03-22T09:09:02;94999.06;;;13.90;39.18
11347;BME280;5728;42.722;23.258;2024-03-22T09:11:31;94988.00;;;14.81;38.68
11347;BME280;5728;42.722;23.258;2024-03-22T09:13:58;94980.63;;;15.53;36.77
11347;BME280;5728;42.722;23.258;2024-03-22T09:16:30;94977.84;;;15.01;37.61
11347;BME280;5728;42.722;23.258;2024-03-22T09:18:58;94984.34;;;15.17;37.09
11347;BME280;5728;42.722;23.258;2024-03-22T09:21:26;94979.44;;;15.36;38.14
11347;BME280;5728;42.722;23.258;2024-03-22T09:23:55;94985.22;;;16.01;36.32
11347;BME280;5728;42.722;23.258;2024-03-22T09:26:22;94963.00;;;16.38;35.24
11347;BME280;5728;42.722;23.258;2024-03-22T09:28:51;94971.34;;;17.44;33.84
11347;BME280;5728;42.722;23.258;2024-03-22T09:31:18;94963.41;;;17.22;35.07
11347;BME280;5728;42.722;23.258;2024-03-22T09:33:48;94961.38;;;17.07;33.89
11347;BME280;5728;42.722;23.258;2024-03-22T09:36:15;94978.63;;;16.66;34.22
11347;BME280;5728;42.722;23.258;2024-03-22T09:38:42;94973.28;;;15.92;34.27
11347;BME280;5728;42.722;23.258;2024-03-22T09:41:08;94966.09;;;16.97;37.21
11347;BME280;5728;42.722;23.258;2024-03-22T09:43:36;94963.88;;;15.86;34.86
11347;BME280;5728;42.722;23.258;2024-03-22T09:46:05;94947.44;;;16.34;34.97
11347;BME280;5728;42.722;23.258;2024-03-22T09:48:33;94964.53;;;16.93;34.14
11347;BME280;5728;42.722;23.258;2024-03-22T09:51:01;94959.91;;;17.68;35.86
11347;BME280;5728;42.722;23.258;2024-03-22T09:53:29;94951.03;;;17.72;32.00
11347;BME280;5728;42.722;23.258;2024-03-22T09:55:59;94953.91;;;17.19;33.01
11347;BME280;5728;42.722;23.258;2024-03-22T09:58:27;94950.75;;;15.62;34.83
11347;BME280;5728;42.722;23.258;2024-03-22T10:00:54;94945.84;;;14.94;36.33
11347;BME280;5728;42.722;23.258;2024-03-22T10:03:26;94945.78;;;15.80;36.70
11347;BME280;5728;42.722;23.258;2024-03-22T10:05:52;94947.81;;;16.48;35.52
11347;BME280;5728;42.722;23.258;2024-03-22T10:08:20;94943.75;;;15.88;34.38
11347;BME280;5728;42.722;23.258;2024-03-22T10:10:47;94946.03;;;16.24;38.24
11347;BME280;5728;42.722;23.258;2024-03-22T10:13:14;94941.75;;;16.95;33.59
11347;BME280;5728;42.722;23.258;2024-03-22T10:15:40;94951.75;;;17.54;35.92
11347;BME280;5728;42.722;23.258;2024-03-22T10:18:09;94942.53;;;17.65;32.74
11347;BME280;5728;42.722;23.258;2024-03-22T10:20:35;94944.84;;;17.73;33.64
11347;BME280;5728;42.722;23.258;2024-03-22T10:23:02;94935.34;;;17.02;33.03
11347;BME280;5728;42.722;23.258;2024-03-22T10:25:30;94935.34;;;17.47;32.49
11347;BME280;5728;42.722;23.258;2024-03-22T10:27:58;94928.94;;;17.56;32.65
11347;BME280;5728;42.722;23.258;2024-03-22T10:30:25;94925.44;;;18.19;31.35
11347;BME280;5728;42.722;23.258;2024-03-22T10:32:52;94929.41;;;18.49;30.74
11347;BME280;5728;42.722;23.258;2024-03-22T10:35:19;94929.16;;;18.55;30.70
11347;BME280;5728;42.722;23.258;2024-03-22T10:37:46;94915.81;;;19.54;29.40
11347;BME280;5728;42.722;23.258;2024-03-22T10:40:13;94914.06;;;19.91;33.28
11347;BME280;5728;42.722;23.258;2024-03-22T10:42:42;94919.28;;;19.73;32.03
11347;BME280;5728;42.722;23.258;2024-03-22T10:45:10;94921.94;;;19.91;28.95
11347;BME280;5728;42.722;23.258;2024-03-22T10:47:37;94913.91;;;19.58;29.92
11347;BME280;5728;42.722;23.258;2024-03-22T10:50:05;94904.06;;;19.61;29.19
11347;BME280;5728;42.722;23.258;2024-03-22T10:52:37;94923.41;;;19.43;29.10
11347;BME280;5728;42.722;23.258;2024-03-22T10:55:08;94907.09;;;18.59;30.51
11347;BME280;5728;42.722;23.258;2024-03-22T10:57:37;94904.25;;;17.61;30.93
11347;BME280;5728;42.722;23.258;2024-03-22T11:00:09;94900.03;;;16.89;32.38
11347;BME280;5728;42.722;23.258;2024-03-22T11:02:35;94896.25;;;17.64;33.33
11347;BME280;5728;42.722;23.258;2024-03-22T11:05:03;94896.03;;;16.81;32.42
11347;BME280;5728;42.722;23.258;2024-03-22T11:07:30;94881.69;;;18.60;30.58
11347;BME280;5728;42.722;23.258;2024-03-22T11:09:57;94884.41;;;19.87;29.24
11347;BME280;5728;42.722;23.258;2024-03-22T11:12:25;94879.22;;;19.31;28.54
11347;BME280;5728;42.722;23.258;2024-03-22T11:14:53;94875.13;;;18.50;29.45
11347;BME280;5728;42.722;23.258;2024-03-22T11:17:20;94877.41;;;18.37;30.98
11347;BME280;5728;42.722;23.258;2024-03-22T11:19:50;94898.13;;;17.61;30.92
11347;BME280;5728;42.722;23.258;2024-03-22T11:22:17;94867.44;;;17.19;31.45
11347;BME280;5728;42.722;23.258;2024-03-22T11:24:45;94873.09;;;17.54;32.08
11347;BME280;5728;42.722;23.258;2024-03-22T11:27:11;94878.53;;;17.26;32.12
11347;BME280;5728;42.722;23.258;2024-03-22T11:29:39;94892.00;;;17.62;31.47
11347;BME280;5728;42.722;23.258;2024-03-22T11:32:07;94872.22;;;17.95;30.86
11347;BME280;5728;42.722;23.258;2024-03-22T11:34:37;94851.69;;;17.84;31.21
11347;BME280;5728;42.722;23.258;2024-03-22T11:37:04;94865.78;;;17.62;30.92
11347;BME280;5728;42.722;23.258;2024-03-22T11:39:32;94861.94;;;17.47;31.75
11347;BME280;5728;42.722;23.258;2024-03-22T11:42:01;94871.50;;;17.92;30.83
11347;BME280;5728;42.722;23.258;2024-03-22T11:44:28;94861.06;;;17.90;30.22
11347;BME280;5728;42.722;23.258;2024-03-22T11:46:55;94851.47;;;17.69;30.29
11347;BME280;5728;42.722;23.258;2024-03-22T11:49:22;94855.09;;;16.78;31.49
11347;BME280;5728;42.722;23.258;2024-03-22T11:51:51;94852.22;;;16.38;31.90
11347;BME280;5728;42.722;23.258;2024-03-22T11:54:19;94858.63;;;16.77;31.32
11347;BME280;5728;42.722;23.258;2024-03-22T11:56:45;94848.56;;;17.55;30.23
11347;BME280;5728;42.722;23.258;2024-03-22T11:59:13;94841.28;;;18.81;29.35
11347;BME280;5728;42.722;23.258;2024-03-22T12:01:40;94834.75;;;18.52;30.53
11347;BME280;5728;42.722;23.258;2024-03-22T12:04:07;94833.78;;;17.74;29.67
11347;BME280;5728;42.722;23.258;2024-03-22T12:06:41;94829.97;;;18.21;29.70
11347;BME280;5728;42.722;23.258;2024-03-22T12:09:10;94817.03;;;18.37;29.42
11347;BME280;5728;42.722;23.258;2024-03-22T12:11:38;94819.69;;;18.35;29.31
11347;BME280;5728;42.722;23.258;2024-03-22T12:14:05;94857.25;;;18.37;29.43
11347;BME280;5728;42.722;23.258;2024-03-22T12:16:31;94810.97;;;18.92;28.72
11347;BME280;5728;42.722;23.258;2024-03-22T12:18:58;94821.06;;;18.83;29.08
11347;BME280;5728;42.722;23.258;2024-03-22T12:21:24;94816.63;;;19.56;28.40
11347;BME280;5728;42.722;23.258;2024-03-22T12:23:52;94819.44;;;20.05;27.89
11347;BME280;5728;42.722;23.258;2024-03-22T12:26:19;94817.78;;;20.69;26.33
11347;BME280;5728;42.722;23.258;2024-03-22T12:28:46;94830.44;;;20.95;26.67
11347;BME280;5728;42.722;23.258;2024-03-22T12:31:13;94819.97;;;21.72;25.60
11347;BME280;5728;42.722;23.258;2024-03-22T12:33:40;94807.44;;;21.60;26.85
11347;BME280;5728;42.722;23.258;2024-03-22T12:36:06;94811.31;;;21.84;25.25
11347;BME280;5728;42.722;23.258;2024-03-22T12:38:34;94807.75;;;21.85;24.86
11347;BME280;5728;42.722;23.258;2024-03-22T12:41:01;94800.59;;;22.17;24.20
11347;BME280;5728;42.722;23.258;2024-03-22T12:43:29;94799.34;;;22.08;24.78
11347;BME280;5728;42.722;23.258;2024-03-22T12:45:55;94817.44;;;23.15;23.50
11347;BME280;5728;42.722;23.258;2024-03-22T12:48:22;94797.63;;;22.79;23.93
11347;BME280;5728;42.722;23.258;2024-03-22T12:50:48;94824.88;;;22.52;24.08
11347;BME280;5728;42.722;23.258;2024-03-22T12:53:15;94793.38;;;22.77;23.75
11347;BME280;5728;42.722;23.258;2024-03-22T12:55:42;94792.25;;;22.53;24.44
11347;BME280;5728;42.722;23.258;2024-03-22T12:58:09;94786.25;;;22.07;24.64
11347;BME280;5728;42.722;23.258;2024-03-22T13:00:37;94788.25;;;22.17;24.14
11347;BME280;5728;42.722;23.258;2024-03-22T13:03:04;94780.53;;;22.43;24.56
11347;BME280;5728;42.722;23.258;2024-03-22T13:05:30;94781.09;;;22.48;24.25